createdAt,value
2018-05-01T02:15:19.472Z,998.74
2018-05-01T02:15:19.976Z,998.74
2018-05-01T02:15:20.576Z,998.74
2018-05-01T02:15:21.176Z,998.71
2018-05-01T02:15:21.775Z,998.68
2018-05-01T02:15:22.376Z,998.68
2018-05-01T02:15:22.978Z,998.70
2018-05-01T02:16:16.516Z,998.68
2018-05-01T02:16:17.091Z,998.64
2018-05-01T02:16:17.686Z,998.64
2018-05-01T02:16:18.291Z,998.66
2018-05-01T02:16:18.884Z,998.66
2018-05-01T02:16:19.485Z,998.64
2018-05-01T02:16:20.085Z,998.64
2018-05-01T02:16:20.683Z,998.64
2018-05-01T02:17:15.193Z,998.75
2018-05-01T02:17:15.763Z,998.72
2018-05-01T02:17:16.361Z,998.74
2018-05-01T02:17:16.962Z,998.72
2018-05-01T02:17:17.561Z,998.73
2018-05-01T02:17:18.160Z,998.77
2018-05-01T02:17:18.763Z,998.75
2018-05-01T02:17:19.361Z,998.76
2018-05-01T02:18:25.543Z,998.61
2018-05-01T02:18:26.111Z,998.66
2018-05-01T02:18:26.713Z,998.63
2018-05-01T02:18:27.313Z,998.68
2018-05-01T02:18:27.911Z,998.70
2018-05-01T02:18:28.511Z,998.68
2018-05-01T02:18:29.112Z,998.68
2018-05-01T02:18:29.710Z,998.67
2018-05-01T02:19:23.193Z,998.63
2018-05-01T02:19:23.767Z,998.63
2018-05-01T02:19:24.365Z,998.61
2018-05-01T02:19:24.967Z,998.65
2018-05-01T02:19:25.564Z,998.67
2018-05-01T02:19:26.166Z,998.65
2018-05-01T02:19:26.767Z,998.63
2018-05-01T02:19:27.365Z,998.62
2018-05-01T02:20:20.844Z,998.69
2018-05-01T02:20:21.418Z,998.67
2018-05-01T02:20:22.017Z,998.71
2018-05-01T02:20:22.625Z,998.70
2018-05-01T02:20:23.219Z,998.73
2018-05-01T02:20:23.817Z,998.73
2018-05-01T02:20:24.418Z,998.72
2018-05-01T02:20:25.020Z,998.68
2018-05-01T02:21:18.495Z,998.67
2018-05-01T02:21:19.071Z,998.67
2018-05-01T02:21:19.669Z,998.69
2018-05-01T02:21:20.269Z,998.67
2018-05-01T02:21:20.879Z,998.68
2018-05-01T02:21:21.469Z,998.66
2018-05-01T02:21:22.072Z,998.68
2018-05-01T02:21:22.669Z,998.69
2018-05-01T02:22:16.149Z,998.68
2018-05-01T02:22:16.724Z,998.65
2018-05-01T02:22:17.327Z,998.66
2018-05-01T02:22:17.920Z,998.64
2018-05-01T02:22:18.555Z,998.66
2018-05-01T02:22:19.122Z,998.64
2018-05-01T02:22:19.722Z,998.68
2018-05-01T02:22:20.319Z,998.65
2018-05-01T02:23:13.801Z,998.68
2018-05-01T02:23:14.372Z,998.70
2018-05-01T02:23:14.973Z,998.69
2018-05-01T02:23:15.576Z,998.70
2018-05-01T02:23:16.174Z,998.69
2018-05-01T02:23:16.772Z,998.70
2018-05-01T02:23:17.373Z,998.70
2018-05-01T02:23:17.972Z,998.70
2018-05-01T02:24:11.453Z,998.68
2018-05-01T02:24:12.026Z,998.70
2018-05-01T02:24:12.625Z,998.69
2018-05-01T02:24:13.224Z,998.70
2018-05-01T02:24:13.825Z,998.71
2018-05-01T02:24:14.423Z,998.66
2018-05-01T02:24:15.025Z,998.65
2018-05-01T02:24:15.624Z,998.67
2018-05-01T02:25:09.107Z,998.65
2018-05-01T02:25:09.680Z,998.69
2018-05-01T02:25:10.276Z,998.68
2018-05-01T02:25:10.875Z,998.69
2018-05-01T02:25:11.475Z,998.70
2018-05-01T02:25:12.075Z,998.69
2018-05-01T02:25:12.676Z,998.69
2018-05-01T02:25:13.276Z,998.67
2018-05-01T02:26:07.837Z,998.60
2018-05-01T02:26:08.371Z,998.62
2018-05-01T02:26:08.978Z,998.63
2018-05-01T02:26:09.552Z,998.67
2018-05-01T02:26:10.152Z,998.65
2018-05-01T02:26:10.754Z,998.59
2018-05-01T02:26:11.353Z,998.63
2018-05-01T02:26:11.950Z,998.63
2018-05-01T02:27:05.942Z,998.69
2018-05-01T02:27:06.516Z,998.69
2018-05-01T02:27:07.119Z,998.68
2018-05-01T02:27:07.720Z,998.68
2018-05-01T02:27:08.328Z,998.69
2018-05-01T02:27:08.916Z,998.68
2018-05-01T02:27:09.516Z,998.71
2018-05-01T02:28:04.007Z,998.77
2018-05-01T02:28:04.577Z,998.74
2018-05-01T02:28:05.176Z,998.79
2018-05-01T02:28:05.776Z,998.80
2018-05-01T02:28:06.377Z,998.82
2018-05-01T02:28:06.975Z,998.81
2018-05-01T02:28:07.579Z,998.85
2018-05-01T02:28:08.175Z,998.85
2018-05-01T02:29:01.657Z,998.62
2018-05-01T02:29:02.232Z,998.60
2018-05-01T02:29:02.831Z,998.62
2018-05-01T02:29:03.430Z,998.64
2018-05-01T02:29:04.030Z,998.64
2018-05-01T02:29:04.630Z,998.62
2018-05-01T02:29:05.228Z,998.61
2018-05-01T02:29:05.828Z,998.60
2018-05-01T02:29:59.318Z,998.67
2018-05-01T02:29:59.884Z,998.66
2018-05-01T02:30:00.481Z,998.69
2018-05-01T02:30:01.082Z,998.70
2018-05-01T02:30:01.682Z,998.71
2018-05-01T02:30:02.284Z,998.68
2018-05-01T02:30:02.881Z,998.69
2018-05-01T02:30:03.483Z,998.69
2018-05-01T02:30:56.960Z,998.65
2018-05-01T02:30:57.533Z,998.62
2018-05-01T02:30:58.142Z,998.65
2018-05-01T02:30:58.733Z,998.69
2018-05-01T02:30:59.333Z,998.63
2018-05-01T02:30:59.933Z,998.67
2018-05-01T02:31:00.533Z,998.65
2018-05-01T02:31:01.136Z,998.71
2018-05-01T02:31:54.617Z,998.63
2018-05-01T02:31:55.185Z,998.62
2018-05-01T02:31:55.785Z,998.64
2018-05-01T02:31:56.385Z,998.67
2018-05-01T02:31:56.983Z,998.69
2018-05-01T02:31:57.585Z,998.67
2018-05-01T02:31:58.184Z,998.70
2018-05-01T02:31:58.783Z,998.71
2018-05-01T02:32:53.288Z,998.61
2018-05-01T02:32:53.862Z,998.62
2018-05-01T02:32:54.460Z,998.63
2018-05-01T02:32:55.064Z,998.63
2018-05-01T02:32:55.670Z,998.63
2018-05-01T02:32:56.264Z,998.64
2018-05-01T02:32:56.859Z,998.62
2018-05-01T02:32:57.459Z,998.60
2018-05-01T02:33:50.948Z,998.65
2018-05-01T02:33:51.512Z,998.64
2018-05-01T02:33:52.112Z,998.65
2018-05-01T02:33:52.712Z,998.64
2018-05-01T02:33:53.312Z,998.66
2018-05-01T02:33:53.911Z,998.60
2018-05-01T02:33:54.514Z,998.62
2018-05-01T02:33:55.111Z,998.65
2018-05-01T02:34:48.597Z,998.63
2018-05-01T02:34:49.168Z,998.66
2018-05-01T02:34:49.765Z,998.67
2018-05-01T02:34:50.365Z,998.65
2018-05-01T02:34:50.963Z,998.70
2018-05-01T02:34:51.565Z,998.71
2018-05-01T02:34:52.164Z,998.70
2018-05-01T02:34:52.766Z,998.64
2018-05-01T02:35:46.243Z,998.64
2018-05-01T02:35:46.819Z,998.60
2018-05-01T02:35:47.416Z,998.64
2018-05-01T02:35:48.014Z,998.64
2018-05-01T02:35:48.616Z,998.63
2018-05-01T02:35:49.215Z,998.63
2018-05-01T02:35:49.815Z,998.61
2018-05-01T02:35:50.414Z,998.63
2018-05-01T02:36:43.897Z,998.60
2018-05-01T02:36:44.468Z,998.59
2018-05-01T02:36:45.067Z,998.61
2018-05-01T02:36:45.668Z,998.60
2018-05-01T02:36:46.266Z,998.60
2018-05-01T02:36:46.867Z,998.61
2018-05-01T02:36:47.477Z,998.59
2018-05-01T02:36:48.069Z,998.63
2018-05-01T02:37:42.571Z,998.59
2018-05-01T02:37:43.145Z,998.54
2018-05-01T02:37:43.742Z,998.56
2018-05-01T02:37:44.343Z,998.57
2018-05-01T02:37:44.942Z,998.58
2018-05-01T02:37:45.543Z,998.57
2018-05-01T02:37:46.143Z,998.55
2018-05-01T02:37:46.744Z,998.58
2018-05-01T02:38:40.225Z,998.70
2018-05-01T02:38:40.796Z,998.70
2018-05-01T02:38:41.396Z,998.69
2018-05-01T02:38:41.993Z,998.64
2018-05-01T02:38:42.595Z,998.66
2018-05-01T02:38:43.195Z,998.67
2018-05-01T02:38:43.794Z,998.63
2018-05-01T02:38:44.396Z,998.68
2018-05-01T02:39:37.875Z,998.64
2018-05-01T02:39:38.448Z,998.59
2018-05-01T02:39:39.050Z,998.57
2018-05-01T02:39:39.648Z,998.62
2018-05-01T02:39:40.247Z,998.57
2018-05-01T02:39:40.846Z,998.58
2018-05-01T02:39:41.446Z,998.63
2018-05-01T02:39:42.049Z,998.64
2018-05-01T02:40:35.529Z,998.74
2018-05-01T02:40:36.098Z,998.74
2018-05-01T02:40:36.699Z,998.76
2018-05-01T02:40:37.298Z,998.74
2018-05-01T02:40:37.897Z,998.70
2018-05-01T02:40:38.498Z,998.65
2018-05-01T02:40:39.102Z,998.64
2018-05-01T02:40:39.699Z,998.61
2018-05-01T02:41:34.202Z,998.65
2018-05-01T02:41:34.774Z,998.62
2018-05-01T02:41:35.373Z,998.62
2018-05-01T02:41:35.973Z,998.67
2018-05-01T02:41:36.573Z,998.66
2018-05-01T02:41:37.174Z,998.68
2018-05-01T02:41:37.773Z,998.68
2018-05-01T02:41:38.374Z,998.63
2018-05-01T02:42:31.957Z,998.56
2018-05-01T02:42:32.528Z,998.58
2018-05-01T02:42:33.131Z,998.55
2018-05-01T02:42:33.729Z,998.64
2018-05-01T02:42:34.342Z,998.58
2018-05-01T02:42:34.927Z,998.62
2018-05-01T02:42:35.527Z,998.62
2018-05-01T02:42:36.128Z,998.63
2018-05-01T02:43:29.607Z,998.72
2018-05-01T02:43:30.180Z,998.71
2018-05-01T02:43:30.781Z,998.71
2018-05-01T02:43:31.383Z,998.73
2018-05-01T02:43:31.981Z,998.70
2018-05-01T02:43:32.585Z,998.66
2018-05-01T02:43:33.179Z,998.67
2018-05-01T02:43:33.778Z,998.70
2018-05-01T02:44:27.260Z,998.65
2018-05-01T02:44:27.831Z,998.64
2018-05-01T02:44:28.432Z,998.68
2018-05-01T02:44:29.031Z,998.67
2018-05-01T02:44:29.631Z,998.64
2018-05-01T02:44:30.234Z,998.64
2018-05-01T02:44:30.832Z,998.67
2018-05-01T02:44:31.430Z,998.62
2018-05-01T02:45:24.913Z,998.59
2018-05-01T02:45:25.485Z,998.65
2018-05-01T02:45:26.083Z,998.65
2018-05-01T02:45:26.695Z,998.68
2018-05-01T02:45:27.284Z,998.65
2018-05-01T02:45:27.890Z,998.67
2018-05-01T02:45:28.483Z,998.61
2018-05-01T02:45:29.083Z,998.60
2018-05-01T02:46:22.565Z,998.70
2018-05-01T02:46:23.140Z,998.66
2018-05-01T02:46:23.747Z,998.70
2018-05-01T02:46:24.336Z,998.69
2018-05-01T02:46:24.935Z,998.65
2018-05-01T02:46:25.537Z,998.63
2018-05-01T02:46:26.135Z,998.62
2018-05-01T02:46:26.736Z,998.65
2018-05-01T02:48:05.784Z,998.66
2018-05-01T02:48:06.355Z,998.67
2018-05-01T02:48:06.955Z,998.65
2018-05-01T02:48:07.555Z,998.65
2018-05-01T02:48:08.156Z,998.65
2018-05-01T02:48:08.756Z,998.68
2018-05-01T02:48:09.354Z,998.67
2018-05-01T02:48:09.953Z,998.69
2018-05-01T02:48:10.555Z,998.71
2018-05-01T02:48:11.151Z,998.72
2018-05-01T02:48:11.751Z,998.71
2018-05-01T02:48:12.351Z,998.75
2018-05-01T02:48:12.955Z,998.73
2018-05-01T02:48:13.551Z,998.75
2018-05-01T02:48:14.151Z,998.80
2018-05-01T02:48:14.750Z,998.80
2018-05-01T02:49:10.294Z,998.55
2018-05-01T02:49:10.890Z,998.59
2018-05-01T02:49:11.466Z,998.59
2018-05-01T02:49:12.065Z,998.60
2018-05-01T02:49:12.666Z,998.58
2018-05-01T02:49:13.267Z,998.61
2018-05-01T02:49:13.865Z,998.59
2018-05-01T02:51:26.212Z,998.56
2018-05-01T02:51:26.764Z,998.57
2018-05-01T02:51:27.364Z,998.55
2018-05-01T02:51:27.963Z,998.59
2018-05-01T02:51:28.565Z,998.56
2018-05-01T02:51:29.161Z,998.63
2018-05-01T02:51:29.761Z,998.62
2018-05-01T02:51:30.362Z,998.64
2018-05-01T02:51:30.961Z,998.60
2018-05-01T02:51:31.565Z,998.58
2018-05-01T02:51:32.160Z,998.58
2018-05-01T02:51:32.760Z,998.62
2018-05-01T02:52:26.808Z,998.58
2018-05-01T02:52:27.376Z,998.55
2018-05-01T02:52:27.976Z,998.50
2018-05-01T02:52:28.578Z,998.54
2018-05-01T02:52:29.173Z,998.53
2018-05-01T02:52:29.773Z,998.53
2018-05-01T02:52:30.373Z,998.53
2018-05-01T02:52:30.974Z,998.53
2018-05-01T02:53:24.456Z,998.65
2018-05-01T02:53:25.026Z,998.68
2018-05-01T02:53:25.626Z,998.68
2018-05-01T02:53:26.227Z,998.68
2018-05-01T02:53:26.825Z,998.68
2018-05-01T02:53:27.430Z,998.67
2018-05-01T02:53:28.027Z,998.65
2018-05-01T02:53:28.625Z,998.61
2018-05-01T02:54:22.113Z,998.66
2018-05-01T02:54:22.678Z,998.63
2018-05-01T02:54:23.278Z,998.65
2018-05-01T02:54:23.879Z,998.67
2018-05-01T02:54:24.487Z,998.66
2018-05-01T02:54:25.096Z,998.62
2018-05-01T02:54:25.703Z,998.62
2018-05-01T02:54:26.278Z,998.62
2018-05-01T02:55:20.781Z,998.57
2018-05-01T02:55:21.354Z,998.62
2018-05-01T02:55:21.953Z,998.61
2018-05-01T02:55:22.552Z,998.62
2018-05-01T02:55:23.155Z,998.60
2018-05-01T02:55:23.753Z,998.59
2018-05-01T02:55:24.358Z,998.61
2018-05-01T02:55:24.956Z,998.66
2018-05-01T02:56:18.433Z,998.61
2018-05-01T02:56:19.009Z,998.58
2018-05-01T02:56:19.605Z,998.63
2018-05-01T02:56:20.209Z,998.57
2018-05-01T02:56:20.805Z,998.59
2018-05-01T02:56:21.406Z,998.59
2018-05-01T02:56:22.005Z,998.61
2018-05-01T02:56:22.605Z,998.59
2018-05-01T02:57:16.088Z,998.64
2018-05-01T02:57:16.657Z,998.64
2018-05-01T02:57:17.257Z,998.59
2018-05-01T02:57:17.858Z,998.60
2018-05-01T02:57:18.458Z,998.60
2018-05-01T02:57:19.056Z,998.60
2018-05-01T02:57:19.664Z,998.61
2018-05-01T02:57:20.256Z,998.63
2018-05-01T02:58:14.758Z,998.53
2018-05-01T02:58:15.333Z,998.58
2018-05-01T02:58:15.933Z,998.52
2018-05-01T02:58:16.534Z,998.54
2018-05-01T02:58:17.132Z,998.56
2018-05-01T02:58:17.730Z,998.59
2018-05-01T02:58:18.330Z,998.53
2018-05-01T02:58:18.929Z,998.50
2018-05-01T02:59:13.435Z,998.51
2018-05-01T02:59:14.008Z,998.54
2018-05-01T02:59:14.609Z,998.51
2018-05-01T02:59:15.207Z,998.50
2018-05-01T02:59:15.807Z,998.52
2018-05-01T02:59:16.414Z,998.58
2018-05-01T02:59:17.018Z,998.56
2018-05-01T02:59:17.607Z,998.60
2018-05-01T03:00:12.126Z,998.63
2018-05-01T03:00:12.684Z,998.67
2018-05-01T03:00:13.283Z,998.68
2018-05-01T03:00:13.883Z,998.65
2018-05-01T03:00:14.483Z,998.67
2018-05-01T03:00:15.084Z,998.67
2018-05-01T03:00:15.683Z,998.67
2018-05-01T03:00:16.284Z,998.68
2018-05-01T03:01:10.791Z,998.62
2018-05-01T03:01:11.359Z,998.56
2018-05-01T03:01:11.963Z,998.56
2018-05-01T03:01:12.559Z,998.53
2018-05-01T03:01:13.159Z,998.55
2018-05-01T03:01:13.762Z,998.56
2018-05-01T03:01:14.357Z,998.51
2018-05-01T03:01:14.958Z,998.56
2018-05-01T03:02:09.462Z,998.63
2018-05-01T03:02:10.037Z,998.61
2018-05-01T03:02:10.634Z,998.61
2018-05-01T03:02:11.240Z,998.60
2018-05-01T03:02:11.834Z,998.59
2018-05-01T03:02:12.434Z,998.61
2018-05-01T03:02:13.035Z,998.58
2018-05-01T03:02:13.633Z,998.62
2018-05-01T03:03:07.114Z,998.52
2018-05-01T03:03:07.687Z,998.54
2018-05-01T03:03:08.286Z,998.55
2018-05-01T03:03:08.887Z,998.54
2018-05-01T03:03:09.487Z,998.56
2018-05-01T03:03:10.087Z,998.58
2018-05-01T03:03:10.686Z,998.55
2018-05-01T03:03:11.295Z,998.51
2018-05-01T03:04:05.791Z,998.60
2018-05-01T03:04:06.363Z,998.56
2018-05-01T03:04:06.962Z,998.57
2018-05-01T03:04:07.561Z,998.61
2018-05-01T03:04:08.161Z,998.52
2018-05-01T03:04:08.761Z,998.56
2018-05-01T03:04:09.361Z,998.58
2018-05-01T03:04:09.962Z,998.58
2018-05-01T03:05:03.442Z,998.58
2018-05-01T03:05:04.019Z,998.57
2018-05-01T03:05:04.615Z,998.55
2018-05-01T03:05:05.214Z,998.54
2018-05-01T03:05:05.814Z,998.58
2018-05-01T03:05:06.415Z,998.57
2018-05-01T03:05:07.014Z,998.59
2018-05-01T03:05:07.615Z,998.54
2018-05-01T03:06:01.093Z,998.57
2018-05-01T03:06:01.669Z,998.57
2018-05-01T03:06:02.267Z,998.59
2018-05-01T03:06:02.869Z,998.60
2018-05-01T03:06:03.467Z,998.58
2018-05-01T03:06:04.067Z,998.55
2018-05-01T03:06:04.666Z,998.55
2018-05-01T03:06:05.267Z,998.58
2018-05-01T03:06:58.746Z,998.62
2018-05-01T03:06:59.324Z,998.59
2018-05-01T03:06:59.925Z,998.58
2018-05-01T03:07:00.519Z,998.59
2018-05-01T03:07:01.119Z,998.61
2018-05-01T03:07:01.717Z,998.59
2018-05-01T03:07:02.318Z,998.63
2018-05-01T03:07:02.918Z,998.63
2018-05-01T03:07:57.493Z,998.59
2018-05-01T03:07:57.998Z,998.60
2018-05-01T03:07:58.599Z,998.60
2018-05-01T03:07:59.193Z,998.56
2018-05-01T03:07:59.793Z,998.61
2018-05-01T03:08:00.394Z,998.63
2018-05-01T03:08:00.995Z,998.62
2018-05-01T03:08:01.595Z,998.64
2018-05-01T03:08:55.077Z,998.55
2018-05-01T03:08:55.650Z,998.57
2018-05-01T03:08:56.245Z,998.55
2018-05-01T03:08:56.844Z,998.54
2018-05-01T03:08:57.449Z,998.54
2018-05-01T03:08:58.045Z,998.54
2018-05-01T03:08:58.642Z,998.55
2018-05-01T03:08:59.251Z,998.56
2018-05-01T03:09:52.780Z,998.51
2018-05-01T03:09:53.305Z,998.50
2018-05-01T03:09:54.018Z,998.49
2018-05-01T03:09:54.586Z,998.51
2018-05-01T03:09:55.097Z,998.55
2018-05-01T03:09:55.696Z,998.54
2018-05-01T03:09:56.296Z,998.58
2018-05-01T03:09:56.897Z,998.56
2018-05-01T03:10:51.399Z,998.55
2018-05-01T03:10:51.973Z,998.53
2018-05-01T03:10:52.572Z,998.52
2018-05-01T03:10:53.171Z,998.53
2018-05-01T03:10:53.772Z,998.51
2018-05-01T03:10:54.372Z,998.53
2018-05-01T03:10:54.972Z,998.52
2018-05-01T03:10:55.572Z,998.52
2018-05-01T03:11:49.054Z,998.66
2018-05-01T03:11:49.626Z,998.64
2018-05-01T03:11:50.224Z,998.61
2018-05-01T03:11:50.824Z,998.62
2018-05-01T03:11:51.424Z,998.63
2018-05-01T03:11:52.039Z,998.62
2018-05-01T03:11:52.627Z,998.61
2018-05-01T03:11:53.225Z,998.59
2018-05-01T03:29:26.949Z,998.49
2018-05-01T03:29:27.523Z,998.43
2018-05-01T03:29:28.122Z,998.48
2018-05-01T03:29:28.723Z,998.44
2018-05-01T03:29:29.322Z,998.45
2018-05-01T03:29:29.921Z,998.50
2018-05-01T03:29:30.525Z,998.43
2018-05-01T03:29:31.120Z,998.43
2018-05-01T03:30:24.603Z,998.44
2018-05-01T03:30:25.176Z,998.44
2018-05-01T03:30:25.774Z,998.44
2018-05-01T03:30:26.376Z,998.46
2018-05-01T03:30:26.973Z,998.49
2018-05-01T03:30:27.574Z,998.48
2018-05-01T03:30:28.177Z,998.45
2018-05-01T03:30:28.774Z,998.44
2018-05-01T03:31:22.257Z,998.45
2018-05-01T03:31:22.827Z,998.45
2018-05-01T03:31:23.427Z,998.47
2018-05-01T03:31:24.026Z,998.46
2018-05-01T03:31:24.628Z,998.48
2018-05-01T03:31:25.230Z,998.49
2018-05-01T03:31:25.828Z,998.47
2018-05-01T03:31:26.433Z,998.50
2018-05-01T03:32:19.909Z,998.45
2018-05-01T03:32:20.479Z,998.45
2018-05-01T03:32:21.079Z,998.46
2018-05-01T03:32:21.678Z,998.41
2018-05-01T03:32:22.280Z,998.46
2018-05-01T03:32:22.880Z,998.41
2018-05-01T03:32:23.486Z,998.46
2018-05-01T03:32:24.080Z,998.44
2018-05-01T03:33:17.558Z,998.44
2018-05-01T03:33:18.131Z,998.49
2018-05-01T03:33:18.733Z,998.44
2018-05-01T03:33:19.334Z,998.43
2018-05-01T03:33:19.931Z,998.41
2018-05-01T03:33:20.531Z,998.43
2018-05-01T03:33:21.130Z,998.45
2018-05-01T03:33:21.752Z,998.43
2018-05-01T03:34:15.214Z,998.42
2018-05-01T03:34:15.781Z,998.42
2018-05-01T03:34:16.380Z,998.43
2018-05-01T03:34:16.982Z,998.46
2018-05-01T03:34:17.581Z,998.47
2018-05-01T03:34:18.180Z,998.43
2018-05-01T03:34:18.784Z,998.48
2018-05-01T03:34:19.381Z,998.45
2018-05-01T03:35:12.870Z,998.43
2018-05-01T03:35:13.436Z,998.44
2018-05-01T03:35:14.036Z,998.44
2018-05-01T03:35:14.637Z,998.45
2018-05-01T03:35:15.235Z,998.46
2018-05-01T03:35:15.836Z,998.43
2018-05-01T03:35:16.434Z,998.43
2018-05-01T03:35:17.034Z,998.45
2018-05-01T03:36:10.513Z,998.45
2018-05-01T03:36:11.088Z,998.46
2018-05-01T03:36:11.689Z,998.43
2018-05-01T03:36:12.285Z,998.47
2018-05-01T03:36:12.887Z,998.41
2018-05-01T03:36:13.486Z,998.45
2018-05-01T03:36:14.087Z,998.43
2018-05-01T03:36:14.689Z,998.44
2018-05-01T03:37:09.195Z,998.44
2018-05-01T03:37:09.761Z,998.43
2018-05-01T03:37:10.361Z,998.45
2018-05-01T03:37:10.961Z,998.45
2018-05-01T03:37:11.571Z,998.43
2018-05-01T03:37:12.161Z,998.41
2018-05-01T03:37:12.763Z,998.41
2018-05-01T03:37:13.360Z,998.44
2018-05-01T03:38:07.869Z,998.44
2018-05-01T03:38:08.438Z,998.46
2018-05-01T03:38:09.039Z,998.45
2018-05-01T03:38:09.637Z,998.45
2018-05-01T03:38:10.237Z,998.47
2018-05-01T03:38:10.837Z,998.46
2018-05-01T03:38:11.437Z,998.47
2018-05-01T03:38:12.037Z,998.42
2018-05-01T03:39:06.130Z,998.36
2018-05-01T03:39:06.649Z,998.34
2018-05-01T03:39:07.223Z,998.38
2018-05-01T03:39:07.978Z,998.36
2018-05-01T03:39:08.534Z,998.35
2018-05-01T03:39:09.024Z,998.35
2018-05-01T03:39:09.681Z,998.35
2018-05-01T03:40:04.092Z,998.44
2018-05-01T03:40:04.681Z,998.40
2018-05-01T03:40:06.133Z,998.37
2018-05-01T03:40:06.637Z,998.35
2018-05-01T03:40:07.236Z,998.34
2018-05-01T03:40:07.836Z,998.36
2018-05-01T03:40:08.435Z,998.38
2018-05-01T03:41:01.947Z,998.36
2018-05-01T03:41:02.522Z,998.40
2018-05-01T03:41:03.122Z,998.40
2018-05-01T03:41:03.720Z,998.37
2018-05-01T03:41:04.324Z,998.42
2018-05-01T03:41:04.920Z,998.40
2018-05-01T03:41:05.520Z,998.41
2018-05-01T03:41:06.122Z,998.37
2018-05-01T03:41:59.600Z,998.36
2018-05-01T03:42:00.172Z,998.40
2018-05-01T03:42:00.775Z,998.41
2018-05-01T03:42:01.373Z,998.34
2018-05-01T03:42:01.972Z,998.34
2018-05-01T03:42:02.572Z,998.30
2018-05-01T03:42:03.174Z,998.32
2018-05-01T03:42:03.771Z,998.34
2018-05-01T03:42:58.274Z,998.37
2018-05-01T03:42:58.846Z,998.35
2018-05-01T03:42:59.448Z,998.33
2018-05-01T03:43:00.047Z,998.37
2018-05-01T03:43:00.645Z,998.35
2018-05-01T03:43:01.248Z,998.36
2018-05-01T03:43:01.845Z,998.35
2018-05-01T03:43:02.446Z,998.38
2018-05-01T03:43:55.935Z,998.41
2018-05-01T03:43:56.503Z,998.38
2018-05-01T03:43:57.103Z,998.34
2018-05-01T03:43:57.700Z,998.32
2018-05-01T03:43:58.303Z,998.32
2018-05-01T03:43:58.899Z,998.35
2018-05-01T03:43:59.500Z,998.33
2018-05-01T03:44:00.101Z,998.37
2018-05-01T03:44:53.585Z,998.37
2018-05-01T03:44:54.163Z,998.38
2018-05-01T03:44:54.754Z,998.40
2018-05-01T03:44:55.353Z,998.38
2018-05-01T03:44:56.020Z,998.39
2018-05-01T03:44:56.554Z,998.41
2018-05-01T03:44:57.155Z,998.43
2018-05-01T03:44:57.755Z,998.35
2018-05-01T03:45:52.260Z,998.44
2018-05-01T03:45:52.835Z,998.45
2018-05-01T03:45:53.431Z,998.44
2018-05-01T03:45:54.029Z,998.39
2018-05-01T03:45:54.634Z,998.41
2018-05-01T03:45:55.229Z,998.41
2018-05-01T03:45:55.828Z,998.39
2018-05-01T03:45:56.428Z,998.37
2018-05-01T03:46:50.934Z,998.46
2018-05-01T03:46:51.505Z,998.47
2018-05-01T03:46:52.105Z,998.49
2018-05-01T03:46:52.704Z,998.46
2018-05-01T03:46:53.308Z,998.48
2018-05-01T03:46:53.902Z,998.44
2018-05-01T03:46:54.516Z,998.39
2018-05-01T03:46:55.102Z,998.35
2018-05-01T03:47:49.610Z,998.46
2018-05-01T03:47:50.181Z,998.40
2018-05-01T03:47:50.795Z,998.44
2018-05-01T03:47:51.385Z,998.42
2018-05-01T03:47:51.981Z,998.43
2018-05-01T03:47:52.581Z,998.41
2018-05-01T03:47:53.181Z,998.42
2018-05-01T03:47:53.780Z,998.43
2018-05-01T03:48:47.262Z,998.36
2018-05-01T03:48:47.833Z,998.36
2018-05-01T03:48:48.432Z,998.39
2018-05-01T03:48:49.032Z,998.38
2018-05-01T03:48:49.636Z,998.35
2018-05-01T03:48:50.232Z,998.38
2018-05-01T03:48:50.837Z,998.34
2018-05-01T03:48:51.432Z,998.34
2018-05-01T03:49:44.915Z,998.46
2018-05-01T03:49:45.484Z,998.44
2018-05-01T03:49:46.084Z,998.47
2018-05-01T03:49:46.685Z,998.47
2018-05-01T03:49:47.285Z,998.43
2018-05-01T03:49:47.888Z,998.40
2018-05-01T03:49:48.484Z,998.40
2018-05-01T03:49:49.088Z,998.42
2018-05-01T03:50:42.568Z,998.30
2018-05-01T03:50:43.137Z,998.28
2018-05-01T03:50:43.738Z,998.34
2018-05-01T03:50:44.337Z,998.32
2018-05-01T03:50:44.938Z,998.31
2018-05-01T03:50:45.536Z,998.29
2018-05-01T03:50:46.135Z,998.34
2018-05-01T03:50:46.736Z,998.34
2018-05-01T03:51:40.218Z,998.48
2018-05-01T03:51:40.790Z,998.45
2018-05-01T03:51:41.388Z,998.46
2018-05-01T03:51:41.987Z,998.44
2018-05-01T03:51:42.589Z,998.44
2018-05-01T03:51:43.190Z,998.46
2018-05-01T03:51:43.785Z,998.43
2018-05-01T03:51:44.389Z,998.48
2018-05-01T03:52:37.870Z,998.46
2018-05-01T03:52:38.440Z,998.47
2018-05-01T03:52:39.046Z,998.47
2018-05-01T03:52:39.640Z,998.42
2018-05-01T03:52:40.240Z,998.44
2018-05-01T03:52:40.840Z,998.46
2018-05-01T03:52:41.438Z,998.46
2018-05-01T03:52:42.041Z,998.44
2018-05-01T03:53:37.058Z,998.53
2018-05-01T03:53:37.627Z,998.48
2018-05-01T03:53:38.225Z,998.48
2018-05-01T03:53:38.826Z,998.46
2018-05-01T03:53:39.428Z,998.47
2018-05-01T03:53:40.025Z,998.48
2018-05-01T03:54:34.096Z,998.48
2018-05-01T03:54:34.664Z,998.45
2018-05-01T03:54:35.264Z,998.44
2018-05-01T03:54:35.864Z,998.39
2018-05-01T03:54:36.466Z,998.39
2018-05-01T03:54:37.064Z,998.38
2018-05-01T03:54:37.663Z,998.39
2018-05-01T03:54:38.263Z,998.41
2018-05-01T03:55:32.769Z,998.41
2018-05-01T03:55:33.341Z,998.46
2018-05-01T03:55:33.940Z,998.46
2018-05-01T03:55:34.539Z,998.47
2018-05-01T03:55:35.140Z,998.46
2018-05-01T03:55:35.738Z,998.42
2018-05-01T03:55:36.339Z,998.49
2018-05-01T03:55:36.941Z,998.46
2018-05-01T03:56:30.935Z,998.31
2018-05-01T03:56:31.503Z,998.29
2018-05-01T03:56:32.106Z,998.28
2018-05-01T03:56:32.707Z,998.30
2018-05-01T03:56:33.307Z,998.32
2018-05-01T03:56:33.905Z,998.34
2018-05-01T03:56:34.504Z,998.35
2018-05-01T03:57:28.482Z,998.48
2018-05-01T03:57:29.053Z,998.47
2018-05-01T03:57:29.652Z,998.49
2018-05-01T03:57:30.251Z,998.49
2018-05-01T03:57:30.853Z,998.50
2018-05-01T03:57:31.451Z,998.51
2018-05-01T03:57:32.051Z,998.47
2018-05-01T03:58:25.623Z,998.46
2018-05-01T03:58:26.194Z,998.41
2018-05-01T03:58:26.798Z,998.46
2018-05-01T03:58:27.393Z,998.41
2018-05-01T03:58:27.994Z,998.46
2018-05-01T03:58:28.593Z,998.43
2018-05-01T03:58:29.193Z,998.43
2018-05-01T03:58:29.794Z,998.46
2018-05-01T03:59:23.278Z,998.48
2018-05-01T03:59:23.845Z,998.50
2018-05-01T03:59:24.444Z,998.49
2018-05-01T03:59:25.050Z,998.43
2018-05-01T03:59:25.649Z,998.46
2018-05-01T03:59:26.244Z,998.42
2018-05-01T03:59:26.849Z,998.44
2018-05-01T03:59:27.445Z,998.43
2018-05-01T04:00:23.997Z,998.38
2018-05-01T04:00:24.569Z,998.37
2018-05-01T04:00:25.167Z,998.38
2018-05-01T04:01:19.704Z,998.47
2018-05-01T04:01:20.275Z,998.46
2018-05-01T04:01:20.873Z,998.47
2018-05-01T04:01:21.473Z,998.48
2018-05-01T04:01:22.075Z,998.45
2018-05-01T04:01:22.674Z,998.47
2018-05-01T04:01:23.272Z,998.49
2018-05-01T04:01:23.872Z,998.49
2018-05-01T04:02:17.362Z,998.43
2018-05-01T04:02:18.002Z,998.40
2018-05-01T04:02:18.627Z,998.41
2018-05-01T04:02:19.224Z,998.44
2018-05-01T04:02:19.729Z,998.45
2018-05-01T04:02:20.335Z,998.43
2018-05-01T04:02:20.998Z,998.45
2018-05-01T04:02:21.540Z,998.41
2018-05-01T04:03:16.033Z,998.43
2018-05-01T04:03:16.601Z,998.46
2018-05-01T04:03:17.201Z,998.46
2018-05-01T04:03:17.870Z,998.43
2018-05-01T04:03:18.402Z,998.47
2018-05-01T04:03:19.002Z,998.45
2018-05-01T04:03:19.600Z,998.46
2018-05-01T04:03:20.199Z,998.45
2018-05-01T04:04:13.686Z,998.47
2018-05-01T04:04:14.253Z,998.53
2018-05-01T04:04:14.852Z,998.49
2018-05-01T04:04:15.452Z,998.50
2018-05-01T04:04:16.054Z,998.52
2018-05-01T04:04:16.652Z,998.54
2018-05-01T04:04:17.257Z,998.54